sensor_id;sensor_type;location;lat;lon;timestamp;P1;durP1;ratioP1;P2;durP2;ratioP2
5878;SDS011;2965;42.640;23.370;2022-07-23T00:00:45;12.93;;;7.57;;
5878;SDS011;2965;42.640;23.370;2022-07-23T00:03:11;8.70;;;8.00;;
5878;SDS011;2965;42.640;23.370;2022-07-23T00:05:37;20.60;;;8.10;;
5878;SDS011;2965;42.640;23.370;2022-07-23T00:08:02;16.53;;;7.57;;
5878;SDS011;2965;42.640;23.370;2022-07-23T00:10:28;8.73;;;7.40;;
5878;SDS011;2965;42.640;23.370;2022-07-23T00:12:53;9.40;;;7.40;;
5878;SDS011;2965;42.640;23.370;2022-07-23T00:15:19;7.77;;;6.97;;
5878;SDS011;2965;42.640;23.370;2022-07-23T00:17:44;11.57;;;8.20;;
5878;SDS011;2965;42.640;23.370;2022-07-23T00:20:10;9.33;;;8.40;;
5878;SDS011;2965;42.640;23.370;2022-07-23T00:22:36;8.27;;;7.20;;
5878;SDS011;2965;42.640;23.370;2022-07-23T00:25:01;9.60;;;7.50;;
5878;SDS011;2965;42.640;23.370;2022-07-23T00:27:27;9.07;;;7.40;;
5878;SDS011;2965;42.640;23.370;2022-07-23T00:29:52;8.53;;;7.57;;
5878;SDS011;2965;42.640;23.370;2022-07-23T00:32:17;12.60;;;8.90;;
5878;SDS011;2965;42.640;23.370;2022-07-23T00:34:43;10.43;;;7.83;;
5878;SDS011;2965;42.640;23.370;2022-07-23T00:37:08;12.10;;;8.00;;
5878;SDS011;2965;42.640;23.370;2022-07-23T00:39:34;9.20;;;8.30;;
5878;SDS011;2965;42.640;23.370;2022-07-23T00:41:59;9.40;;;8.50;;
5878;SDS011;2965;42.640;23.370;2022-07-23T00:44:26;10.70;;;8.40;;
5878;SDS011;2965;42.640;23.370;2022-07-23T00:46:56;17.07;;;9.33;;
5878;SDS011;2965;42.640;23.370;2022-07-23T00:49:24;9.50;;;7.60;;
5878;SDS011;2965;42.640;23.370;2022-07-23T00:51:54;10.30;;;9.10;;
5878;SDS011;2965;42.640;23.370;2022-07-23T00:54:21;13.60;;;8.67;;
5878;SDS011;2965;42.640;23.370;2022-07-23T00:56:48;9.97;;;8.97;;
5878;SDS011;2965;42.640;23.370;2022-07-23T00:59:13;17.63;;;9.80;;
5878;SDS011;2965;42.640;23.370;2022-07-23T01:01:39;12.03;;;8.70;;
5878;SDS011;2965;42.640;23.370;2022-07-23T01:04:05;12.50;;;9.33;;
5878;SDS011;2965;42.640;23.370;2022-07-23T01:06:34;9.00;;;7.63;;
5878;SDS011;2965;42.640;23.370;2022-07-23T01:09:02;10.10;;;8.77;;
5878;SDS011;2965;42.640;23.370;2022-07-23T01:11:28;17.17;;;7.97;;
5878;SDS011;2965;42.640;23.370;2022-07-23T01:13:54;10.60;;;9.17;;
5878;SDS011;2965;42.640;23.370;2022-07-23T01:16:20;11.60;;;8.57;;
5878;SDS011;2965;42.640;23.370;2022-07-23T01:18:45;9.07;;;8.23;;
5878;SDS011;2965;42.640;23.370;2022-07-23T01:21:11;9.87;;;8.97;;
5878;SDS011;2965;42.640;23.370;2022-07-23T01:23:40;13.50;;;8.10;;
5878;SDS011;2965;42.640;23.370;2022-07-23T01:26:06;9.93;;;7.40;;
5878;SDS011;2965;42.640;23.370;2022-07-23T01:28:31;13.03;;;8.40;;
5878;SDS011;2965;42.640;23.370;2022-07-23T01:30:57;16.10;;;9.13;;
5878;SDS011;2965;42.640;23.370;2022-07-23T01:33:23;10.27;;;9.17;;
5878;SDS011;2965;42.640;23.370;2022-07-23T01:35:48;8.47;;;7.77;;
5878;SDS011;2965;42.640;23.370;2022-07-23T01:38:14;9.60;;;8.63;;
5878;SDS011;2965;42.640;23.370;2022-07-23T01:40:39;11.37;;;8.70;;
5878;SDS011;2965;42.640;23.370;2022-07-23T01:43:05;10.07;;;8.83;;
5878;SDS011;2965;42.640;23.370;2022-07-23T01:45:30;14.03;;;8.60;;
5878;SDS011;2965;42.640;23.370;2022-07-23T01:47:55;9.00;;;8.37;;
5878;SDS011;2965;42.640;23.370;2022-07-23T01:50:21;9.10;;;8.30;;
5878;SDS011;2965;42.640;23.370;2022-07-23T01:52:46;12.33;;;7.67;;
5878;SDS011;2965;42.640;23.370;2022-07-23T01:55:12;11.13;;;8.43;;
5878;SDS011;2965;42.640;23.370;2022-07-23T01:57:37;10.20;;;7.97;;
5878;SDS011;2965;42.640;23.370;2022-07-23T02:00:03;17.63;;;7.87;;
5878;SDS011;2965;42.640;23.370;2022-07-23T02:02:29;8.93;;;7.97;;
5878;SDS011;2965;42.640;23.370;2022-07-23T02:04:54;9.37;;;8.23;;
5878;SDS011;2965;42.640;23.370;2022-07-23T02:07:20;12.70;;;8.97;;
5878;SDS011;2965;42.640;23.370;2022-07-23T02:09:45;13.63;;;9.40;;
5878;SDS011;2965;42.640;23.370;2022-07-23T02:12:10;8.00;;;7.40;;
5878;SDS011;2965;42.640;23.370;2022-07-23T02:14:36;16.17;;;9.40;;
5878;SDS011;2965;42.640;23.370;2022-07-23T02:17:01;11.10;;;9.30;;
5878;SDS011;2965;42.640;23.370;2022-07-23T02:19:27;10.33;;;9.23;;
5878;SDS011;2965;42.640;23.370;2022-07-23T02:21:52;9.63;;;8.23;;
5878;SDS011;2965;42.640;23.370;2022-07-23T02:24:19;8.97;;;8.17;;
5878;SDS011;2965;42.640;23.370;2022-07-23T02:26:45;12.97;;;7.53;;
5878;SDS011;2965;42.640;23.370;2022-07-23T02:29:10;10.73;;;7.87;;
5878;SDS011;2965;42.640;23.370;2022-07-23T02:31:37;9.43;;;8.23;;
5878;SDS011;2965;42.640;23.370;2022-07-23T02:34:02;9.00;;;8.20;;
5878;SDS011;2965;42.640;23.370;2022-07-23T02:36:28;9.87;;;7.97;;
5878;SDS011;2965;42.640;23.370;2022-07-23T02:38:54;8.23;;;7.50;;
5878;SDS011;2965;42.640;23.370;2022-07-23T02:41:20;9.50;;;8.57;;
5878;SDS011;2965;42.640;23.370;2022-07-23T02:43:45;18.67;;;8.40;;
5878;SDS011;2965;42.640;23.370;2022-07-23T02:46:10;11.47;;;8.37;;
5878;SDS011;2965;42.640;23.370;2022-07-23T02:48:36;11.00;;;8.60;;
5878;SDS011;2965;42.640;23.370;2022-07-23T02:51:01;19.47;;;8.87;;
5878;SDS011;2965;42.640;23.370;2022-07-23T02:53:27;8.27;;;7.40;;
5878;SDS011;2965;42.640;23.370;2022-07-23T02:55:52;14.70;;;8.47;;
5878;SDS011;2965;42.640;23.370;2022-07-23T02:58:18;10.43;;;8.43;;
5878;SDS011;2965;42.640;23.370;2022-07-23T03:00:43;9.03;;;8.23;;
5878;SDS011;2965;42.640;23.370;2022-07-23T03:03:09;13.60;;;8.80;;
5878;SDS011;2965;42.640;23.370;2022-07-23T03:05:34;15.40;;;8.13;;
5878;SDS011;2965;42.640;23.370;2022-07-23T03:08:00;9.10;;;8.30;;
5878;SDS011;2965;42.640;23.370;2022-07-23T03:10:25;10.43;;;8.67;;
5878;SDS011;2965;42.640;23.370;2022-07-23T03:12:51;8.60;;;7.83;;
5878;SDS011;2965;42.640;23.370;2022-07-23T03:15:16;9.57;;;7.60;;
5878;SDS011;2965;42.640;23.370;2022-07-23T03:17:42;9.13;;;7.80;;
5878;SDS011;2965;42.640;23.370;2022-07-23T03:20:08;13.23;;;8.63;;
5878;SDS011;2965;42.640;23.370;2022-07-23T03:22:33;11.50;;;8.33;;
5878;SDS011;2965;42.640;23.370;2022-07-23T03:24:59;13.53;;;8.50;;
5878;SDS011;2965;42.640;23.370;2022-07-23T03:27:25;15.73;;;8.47;;
5878;SDS011;2965;42.640;23.370;2022-07-23T03:29:53;9.77;;;8.07;;
5878;SDS011;2965;42.640;23.370;2022-07-23T03:32:20;14.77;;;8.33;;
5878;SDS011;2965;42.640;23.370;2022-07-23T03:34:46;8.73;;;7.80;;
5878;SDS011;2965;42.640;23.370;2022-07-23T03:37:12;11.70;;;8.60;;
5878;SDS011;2965;42.640;23.370;2022-07-23T03:39:38;10.93;;;8.50;;
5878;SDS011;2965;42.640;23.370;2022-07-23T03:42:04;10.80;;;7.43;;
5878;SDS011;2965;42.640;23.370;2022-07-23T03:44:30;7.87;;;7.17;;
5878;SDS011;2965;42.640;23.370;2022-07-23T03:46:55;11.83;;;8.03;;
5878;SDS011;2965;42.640;23.370;2022-07-23T03:49:20;18.57;;;8.73;;
5878;SDS011;2965;42.640;23.370;2022-07-23T03:51:46;17.73;;;8.20;;
5878;SDS011;2965;42.640;23.370;2022-07-23T03:54:11;11.57;;;8.00;;
5878;SDS011;2965;42.640;23.370;2022-07-23T03:56:37;11.77;;;7.73;;
5878;SDS011;2965;42.640;23.370;2022-07-23T03:59:02;14.03;;;8.80;;
5878;SDS011;2965;42.640;23.370;2022-07-23T04:01:28;14.77;;;8.83;;
5878;SDS011;2965;42.640;23.370;2022-07-23T04:03:53;8.83;;;7.80;;
5878;SDS011;2965;42.640;23.370;2022-07-23T04:06:19;10.80;;;8.10;;
5878;SDS011;2965;42.640;23.370;2022-07-23T04:08:44;14.93;;;9.63;;
5878;SDS011;2965;42.640;23.370;2022-07-23T04:11:10;13.33;;;9.00;;
5878;SDS011;2965;42.640;23.370;2022-07-23T04:13:35;11.60;;;8.43;;
5878;SDS011;2965;42.640;23.370;2022-07-23T04:16:00;16.73;;;9.00;;
5878;SDS011;2965;42.640;23.370;2022-07-23T04:18:26;11.10;;;8.83;;
5878;SDS011;2965;42.640;23.370;2022-07-23T04:20:51;11.33;;;9.73;;
5878;SDS011;2965;42.640;23.370;2022-07-23T04:23:17;8.80;;;8.07;;
5878;SDS011;2965;42.640;23.370;2022-07-23T04:25:43;21.13;;;9.17;;
5878;SDS011;2965;42.640;23.370;2022-07-23T04:28:08;9.63;;;8.73;;
5878;SDS011;2965;42.640;23.370;2022-07-23T04:30:34;11.20;;;9.30;;
5878;SDS011;2965;42.640;23.370;2022-07-23T04:32:59;18.73;;;9.53;;
5878;SDS011;2965;42.640;23.370;2022-07-23T04:35:25;14.87;;;9.50;;
5878;SDS011;2965;42.640;23.370;2022-07-23T04:37:50;14.90;;;9.97;;
5878;SDS011;2965;42.640;23.370;2022-07-23T04:40:16;16.30;;;9.03;;
5878;SDS011;2965;42.640;23.370;2022-07-23T04:42:41;12.60;;;10.07;;
5878;SDS011;2965;42.640;23.370;2022-07-23T04:45:07;10.20;;;9.23;;
5878;SDS011;2965;42.640;23.370;2022-07-23T04:47:32;11.60;;;9.87;;
5878;SDS011;2965;42.640;23.370;2022-07-23T04:49:58;15.33;;;9.70;;
5878;SDS011;2965;42.640;23.370;2022-07-23T04:52:23;18.90;;;10.50;;
5878;SDS011;2965;42.640;23.370;2022-07-23T04:54:49;14.27;;;10.37;;
5878;SDS011;2965;42.640;23.370;2022-07-23T04:57:15;13.73;;;10.47;;
5878;SDS011;2965;42.640;23.370;2022-07-23T04:59:40;13.40;;;10.13;;
5878;SDS011;2965;42.640;23.370;2022-07-23T05:02:06;22.33;;;11.77;;
5878;SDS011;2965;42.640;23.370;2022-07-23T05:04:31;15.97;;;10.80;;
5878;SDS011;2965;42.640;23.370;2022-07-23T05:06:57;14.63;;;11.10;;
5878;SDS011;2965;42.640;23.370;2022-07-23T05:09:23;17.37;;;11.63;;
5878;SDS011;2965;42.640;23.370;2022-07-23T05:11:48;17.63;;;12.73;;
5878;SDS011;2965;42.640;23.370;2022-07-23T05:14:14;16.27;;;11.40;;
5878;SDS011;2965;42.640;23.370;2022-07-23T05:16:40;22.40;;;12.33;;
5878;SDS011;2965;42.640;23.370;2022-07-23T05:19:05;21.93;;;12.43;;
5878;SDS011;2965;42.640;23.370;2022-07-23T05:21:30;47.80;;;11.67;;
5878;SDS011;2965;42.640;23.370;2022-07-23T05:23:56;19.13;;;13.23;;
5878;SDS011;2965;42.640;23.370;2022-07-23T05:26:21;21.40;;;12.00;;
5878;SDS011;2965;42.640;23.370;2022-07-23T05:28:47;27.87;;;13.53;;
5878;SDS011;2965;42.640;23.370;2022-07-23T05:31:12;20.57;;;12.30;;
5878;SDS011;2965;42.640;23.370;2022-07-23T05:33:38;18.40;;;13.17;;
5878;SDS011;2965;42.640;23.370;2022-07-23T05:36:03;24.67;;;13.77;;
5878;SDS011;2965;42.640;23.370;2022-07-23T05:38:30;21.73;;;13.70;;
5878;SDS011;2965;42.640;23.370;2022-07-23T05:40:57;22.30;;;12.80;;
5878;SDS011;2965;42.640;23.370;2022-07-23T05:43:22;27.17;;;13.63;;
5878;SDS011;2965;42.640;23.370;2022-07-23T05:45:48;30.13;;;13.77;;
5878;SDS011;2965;42.640;23.370;2022-07-23T05:48:13;19.07;;;14.40;;
5878;SDS011;2965;42.640;23.370;2022-07-23T05:50:38;32.33;;;17.20;;
5878;SDS011;2965;42.640;23.370;2022-07-23T05:53:04;33.77;;;16.00;;
5878;SDS011;2965;42.640;23.370;2022-07-23T05:55:29;30.83;;;15.40;;
5878;SDS011;2965;42.640;23.370;2022-07-23T05:57:56;25.23;;;14.60;;
5878;SDS011;2965;42.640;23.370;2022-07-23T06:00:22;30.07;;;14.30;;
5878;SDS011;2965;42.640;23.370;2022-07-23T06:02:48;26.57;;;15.93;;
5878;SDS011;2965;42.640;23.370;2022-07-23T06:05:14;28.77;;;13.60;;
5878;SDS011;2965;42.640;23.370;2022-07-23T06:07:39;19.23;;;13.03;;
5878;SDS011;2965;42.640;23.370;2022-07-23T06:10:05;17.20;;;12.33;;
5878;SDS011;2965;42.640;23.370;2022-07-23T06:12:31;23.33;;;12.40;;
5878;SDS011;2965;42.640;23.370;2022-07-23T06:14:56;14.97;;;11.83;;
5878;SDS011;2965;42.640;23.370;2022-07-23T06:17:22;18.80;;;12.07;;
5878;SDS011;2965;42.640;23.370;2022-07-23T06:19:47;23.30;;;11.90;;
5878;SDS011;2965;42.640;23.370;2022-07-23T06:22:12;20.50;;;12.73;;
5878;SDS011;2965;42.640;23.370;2022-07-23T06:24:38;24.70;;;11.87;;
5878;SDS011;2965;42.640;23.370;2022-07-23T06:27:04;26.30;;;12.10;;
5878;SDS011;2965;42.640;23.370;2022-07-23T06:29:29;16.23;;;10.90;;
5878;SDS011;2965;42.640;23.370;2022-07-23T06:31:55;23.33;;;12.30;;
5878;SDS011;2965;42.640;23.370;2022-07-23T06:34:20;13.30;;;11.80;;
5878;SDS011;2965;42.640;23.370;2022-07-23T06:36:46;15.33;;;11.93;;
5878;SDS011;2965;42.640;23.370;2022-07-23T06:39:11;17.20;;;12.63;;
5878;SDS011;2965;42.640;23.370;2022-07-23T06:41:37;19.10;;;12.00;;
5878;SDS011;2965;42.640;23.370;2022-07-23T06:44:02;23.10;;;12.67;;
5878;SDS011;2965;42.640;23.370;2022-07-23T06:46:28;21.57;;;11.60;;
5878;SDS011;2965;42.640;23.370;2022-07-23T06:48:53;16.30;;;11.37;;
5878;SDS011;2965;42.640;23.370;2022-07-23T06:51:19;15.03;;;11.40;;
5878;SDS011;2965;42.640;23.370;2022-07-23T06:53:44;11.73;;;10.77;;
5878;SDS011;2965;42.640;23.370;2022-07-23T06:56:09;17.13;;;11.00;;
5878;SDS011;2965;42.640;23.370;2022-07-23T06:58:35;16.03;;;10.67;;
5878;SDS011;2965;42.640;23.370;2022-07-23T07:01:00;14.53;;;10.90;;
5878;SDS011;2965;42.640;23.370;2022-07-23T07:03:26;10.17;;;9.20;;
5878;SDS011;2965;42.640;23.370;2022-07-23T07:05:51;16.17;;;10.70;;
5878;SDS011;2965;42.640;23.370;2022-07-23T07:08:18;15.70;;;9.57;;
5878;SDS011;2965;42.640;23.370;2022-07-23T07:10:43;14.90;;;9.90;;
5878;SDS011;2965;42.640;23.370;2022-07-23T07:13:09;13.10;;;9.93;;
5878;SDS011;2965;42.640;23.370;2022-07-23T07:15:34;13.00;;;10.33;;
5878;SDS011;2965;42.640;23.370;2022-07-23T07:18:00;12.37;;;10.30;;
5878;SDS011;2965;42.640;23.370;2022-07-23T07:20:26;19.13;;;10.67;;
5878;SDS011;2965;42.640;23.370;2022-07-23T07:22:51;11.10;;;9.97;;
5878;SDS011;2965;42.640;23.370;2022-07-23T07:25:17;12.47;;;9.80;;
5878;SDS011;2965;42.640;23.370;2022-07-23T07:27:42;13.80;;;10.33;;
5878;SDS011;2965;42.640;23.370;2022-07-23T07:30:09;11.80;;;10.10;;
5878;SDS011;2965;42.640;23.370;2022-07-23T07:32:35;14.07;;;9.30;;
5878;SDS011;2965;42.640;23.370;2022-07-23T07:35:02;10.47;;;9.20;;
5878;SDS011;2965;42.640;23.370;2022-07-23T07:37:28;9.53;;;8.73;;
5878;SDS011;2965;42.640;23.370;2022-07-23T07:39:54;10.23;;;9.23;;
5878;SDS011;2965;42.640;23.370;2022-07-23T07:42:20;12.43;;;9.30;;
5878;SDS011;2965;42.640;23.370;2022-07-23T07:44:45;27.67;;;9.90;;
5878;SDS011;2965;42.640;23.370;2022-07-23T07:47:11;11.53;;;9.23;;
5878;SDS011;2965;42.640;23.370;2022-07-23T07:49:36;28.53;;;8.73;;
5878;SDS011;2965;42.640;23.370;2022-07-23T07:52:02;19.73;;;10.93;;
5878;SDS011;2965;42.640;23.370;2022-07-23T07:54:28;15.97;;;10.90;;
5878;SDS011;2965;42.640;23.370;2022-07-23T07:56:53;25.63;;;10.20;;
5878;SDS011;2965;42.640;23.370;2022-07-23T07:59:19;10.20;;;9.30;;
5878;SDS011;2965;42.640;23.370;2022-07-23T08:01:44;13.43;;;9.87;;
5878;SDS011;2965;42.640;23.370;2022-07-23T08:04:10;23.47;;;10.20;;
5878;SDS011;2965;42.640;23.370;2022-07-23T08:06:35;20.40;;;10.10;;
5878;SDS011;2965;42.640;23.370;2022-07-23T08:09:01;19.27;;;9.63;;
5878;SDS011;2965;42.640;23.370;2022-07-23T08:11:26;18.90;;;10.60;;
5878;SDS011;2965;42.640;23.370;2022-07-23T08:13:52;18.63;;;9.80;;
5878;SDS011;2965;42.640;23.370;2022-07-23T08:16:17;18.73;;;10.03;;
5878;SDS011;2965;42.640;23.370;2022-07-23T08:18:43;10.30;;;9.47;;
5878;SDS011;2965;42.640;23.370;2022-07-23T08:21:08;17.93;;;9.40;;
5878;SDS011;2965;42.640;23.370;2022-07-23T08:23:34;15.67;;;10.13;;
5878;SDS011;2965;42.640;23.370;2022-07-23T08:25:59;13.60;;;9.87;;
5878;SDS011;2965;42.640;23.370;2022-07-23T08:28:26;14.67;;;12.40;;
5878;SDS011;2965;42.640;23.370;2022-07-23T08:30:51;12.97;;;8.83;;
5878;SDS011;2965;42.640;23.370;2022-07-23T08:33:17;17.10;;;9.20;;
5878;SDS011;2965;42.640;23.370;2022-07-23T08:35:44;14.20;;;8.70;;
5878;SDS011;2965;42.640;23.370;2022-07-23T08:38:12;10.27;;;9.27;;
5878;SDS011;2965;42.640;23.370;2022-07-23T08:40:41;11.90;;;9.80;;
5878;SDS011;2965;42.640;23.370;2022-07-23T08:43:09;10.13;;;8.37;;
5878;SDS011;2965;42.640;23.370;2022-07-23T08:45:38;10.60;;;9.53;;
5878;SDS011;2965;42.640;23.370;2022-07-23T08:48:07;9.73;;;8.70;;
5878;SDS011;2965;42.640;23.370;2022-07-23T08:50:34;18.50;;;9.90;;
5878;SDS011;2965;42.640;23.370;2022-07-23T08:53:06;13.40;;;9.90;;
5878;SDS011;2965;42.640;23.370;2022-07-23T08:55:32;10.13;;;9.23;;
5878;SDS011;2965;42.640;23.370;2022-07-23T08:57:58;13.23;;;9.87;;
5878;SDS011;2965;42.640;23.370;2022-07-23T09:00:23;20.03;;;10.33;;
5878;SDS011;2965;42.640;23.370;2022-07-23T09:02:49;11.70;;;10.17;;
5878;SDS011;2965;42.640;23.370;2022-07-23T09:05:16;16.67;;;9.90;;
5878;SDS011;2965;42.640;23.370;2022-07-23T09:10:54;10.40;;;9.53;;
5878;SDS011;2965;42.640;23.370;2022-07-23T09:15:56;13.07;;;10.10;;
5878;SDS011;2965;42.640;23.370;2022-07-23T09:18:34;15.80;;;10.00;;
5878;SDS011;2965;42.640;23.370;2022-07-23T09:21:13;12.97;;;9.73;;
5878;SDS011;2965;42.640;23.370;2022-07-23T09:26:19;21.57;;;10.40;;
5878;SDS011;2965;42.640;23.370;2022-07-23T09:31:20;12.17;;;10.00;;
5878;SDS011;2965;42.640;23.370;2022-07-23T09:33:46;16.40;;;9.67;;
5878;SDS011;2965;42.640;23.370;2022-07-23T09:36:11;12.40;;;9.77;;
5878;SDS011;2965;42.640;23.370;2022-07-23T09:38:47;18.47;;;9.73;;
5878;SDS011;2965;42.640;23.370;2022-07-23T09:41:14;9.90;;;9.10;;
5878;SDS011;2965;42.640;23.370;2022-07-23T09:43:39;14.73;;;10.03;;
5878;SDS011;2965;42.640;23.370;2022-07-23T09:46:18;16.87;;;11.63;;
5878;SDS011;2965;42.640;23.370;2022-07-23T09:48:54;9.63;;;8.87;;
5878;SDS011;2965;42.640;23.370;2022-07-23T09:51:24;8.30;;;7.80;;
5878;SDS011;2965;42.640;23.370;2022-07-23T09:53:56;15.07;;;11.90;;
5878;SDS011;2965;42.640;23.370;2022-07-23T09:56:22;9.77;;;8.77;;
5878;SDS011;2965;42.640;23.370;2022-07-23T09:58:49;8.73;;;8.13;;
5878;SDS011;2965;42.640;23.370;2022-07-23T10:01:17;9.03;;;8.27;;
5878;SDS011;2965;42.640;23.370;2022-07-23T10:03:44;9.17;;;8.37;;
5878;SDS011;2965;42.640;23.370;2022-07-23T10:06:12;9.30;;;7.50;;
5878;SDS011;2965;42.640;23.370;2022-07-23T10:08:39;7.93;;;7.20;;
5878;SDS011;2965;42.640;23.370;2022-07-23T10:11:06;10.50;;;6.67;;
5878;SDS011;2965;42.640;23.370;2022-07-23T10:13:31;9.73;;;6.70;;
5878;SDS011;2965;42.640;23.370;2022-07-23T10:16:16;7.20;;;6.60;;
5878;SDS011;2965;42.640;23.370;2022-07-23T10:18:41;11.03;;;8.73;;
5878;SDS011;2965;42.640;23.370;2022-07-23T10:21:07;10.17;;;7.57;;
5878;SDS011;2965;42.640;23.370;2022-07-23T10:23:35;8.30;;;7.70;;
5878;SDS011;2965;42.640;23.370;2022-07-23T10:37:17;7.00;;;6.50;;
5878;SDS011;2965;42.640;23.370;2022-07-23T10:42:38;11.77;;;6.67;;
5878;SDS011;2965;42.640;23.370;2022-07-23T10:47:48;10.73;;;6.30;;
5878;SDS011;2965;42.640;23.370;2022-07-23T10:50:23;6.27;;;5.87;;
5878;SDS011;2965;42.640;23.370;2022-07-23T10:57:55;7.63;;;6.90;;
5878;SDS011;2965;42.640;23.370;2022-07-23T11:00:22;7.67;;;6.97;;
5878;SDS011;2965;42.640;23.370;2022-07-23T11:02:50;6.87;;;6.47;;
5878;SDS011;2965;42.640;23.370;2022-07-23T11:05:18;8.27;;;5.93;;
5878;SDS011;2965;42.640;23.370;2022-07-23T11:10:48;6.80;;;6.40;;
5878;SDS011;2965;42.640;23.370;2022-07-23T11:13:30;6.40;;;5.80;;
5878;SDS011;2965;42.640;23.370;2022-07-23T11:31:56;5.93;;;5.17;;
5878;SDS011;2965;42.640;23.370;2022-07-23T11:34:28;6.07;;;5.47;;
5878;SDS011;2965;42.640;23.370;2022-07-23T11:36:58;6.07;;;5.43;;
5878;SDS011;2965;42.640;23.370;2022-07-23T11:39:29;4.90;;;4.60;;
5878;SDS011;2965;42.640;23.370;2022-07-23T11:41:55;11.00;;;6.53;;
5878;SDS011;2965;42.640;23.370;2022-07-23T11:47:01;6.10;;;5.43;;
5878;SDS011;2965;42.640;23.370;2022-07-23T11:49:28;13.00;;;5.07;;
5878;SDS011;2965;42.640;23.370;2022-07-23T11:54:33;6.10;;;5.57;;
5878;SDS011;2965;42.640;23.370;2022-07-23T11:57:00;6.10;;;5.37;;
5878;SDS011;2965;42.640;23.370;2022-07-23T11:59:27;9.57;;;5.63;;
5878;SDS011;2965;42.640;23.370;2022-07-23T12:01:59;7.30;;;4.73;;
5878;SDS011;2965;42.640;23.370;2022-07-23T12:04:42;8.20;;;5.33;;
5878;SDS011;2965;42.640;23.370;2022-07-23T12:12:38;5.60;;;4.43;;
5878;SDS011;2965;42.640;23.370;2022-07-23T12:15:10;5.60;;;5.10;;
5878;SDS011;2965;42.640;23.370;2022-07-23T12:17:38;7.67;;;5.73;;
5878;SDS011;2965;42.640;23.370;2022-07-23T12:20:05;13.00;;;5.30;;
5878;SDS011;2965;42.640;23.370;2022-07-23T12:22:37;7.30;;;5.17;;
5878;SDS011;2965;42.640;23.370;2022-07-23T12:25:11;10.30;;;5.20;;
5878;SDS011;2965;42.640;23.370;2022-07-23T12:27:38;7.40;;;4.70;;
5878;SDS011;2965;42.640;23.370;2022-07-23T12:32:48;21.40;;;5.17;;
5878;SDS011;2965;42.640;23.370;2022-07-23T12:35:15;10.07;;;5.67;;
5878;SDS011;2965;42.640;23.370;2022-07-23T12:37:41;10.20;;;4.90;;
5878;SDS011;2965;42.640;23.370;2022-07-23T12:45:24;10.20;;;5.10;;
5878;SDS011;2965;42.640;23.370;2022-07-23T12:51:13;16.13;;;5.10;;
5878;SDS011;2965;42.640;23.370;2022-07-23T12:55:47;4.27;;;3.93;;
5878;SDS011;2965;42.640;23.370;2022-07-23T12:58:18;9.27;;;4.23;;
5878;SDS011;2965;42.640;23.370;2022-07-23T13:05:48;10.93;;;4.23;;
5878;SDS011;2965;42.640;23.370;2022-07-23T13:08:13;9.90;;;5.60;;
5878;SDS011;2965;42.640;23.370;2022-07-23T13:10:39;5.30;;;4.80;;
5878;SDS011;2965;42.640;23.370;2022-07-23T13:13:08;7.73;;;4.97;;
5878;SDS011;2965;42.640;23.370;2022-07-23T13:15:35;9.70;;;4.70;;
5878;SDS011;2965;42.640;23.370;2022-07-23T13:18:00;10.30;;;4.67;;
5878;SDS011;2965;42.640;23.370;2022-07-23T13:20:26;7.03;;;4.10;;
5878;SDS011;2965;42.640;23.370;2022-07-23T13:22:51;25.50;;;4.60;;
5878;SDS011;2965;42.640;23.370;2022-07-23T13:25:16;6.10;;;3.90;;
5878;SDS011;2965;42.640;23.370;2022-07-23T13:27:42;11.97;;;3.90;;
5878;SDS011;2965;42.640;23.370;2022-07-23T13:30:07;11.17;;;4.00;;
5878;SDS011;2965;42.640;23.370;2022-07-23T13:32:35;6.20;;;4.50;;
5878;SDS011;2965;42.640;23.370;2022-07-23T13:35:01;8.10;;;4.00;;
5878;SDS011;2965;42.640;23.370;2022-07-23T13:37:27;17.43;;;4.90;;
5878;SDS011;2965;42.640;23.370;2022-07-23T13:39:53;5.90;;;4.80;;
5878;SDS011;2965;42.640;23.370;2022-07-23T13:42:18;8.90;;;4.73;;
5878;SDS011;2965;42.640;23.370;2022-07-23T13:44:43;10.07;;;4.73;;
5878;SDS011;2965;42.640;23.370;2022-07-23T13:47:09;11.33;;;5.07;;
5878;SDS011;2965;42.640;23.370;2022-07-23T13:49:34;9.43;;;4.37;;
5878;SDS011;2965;42.640;23.370;2022-07-23T13:52:00;6.10;;;3.60;;
5878;SDS011;2965;42.640;23.370;2022-07-23T13:54:25;12.40;;;5.53;;
5878;SDS011;2965;42.640;23.370;2022-07-23T13:56:51;13.63;;;5.37;;
5878;SDS011;2965;42.640;23.370;2022-07-23T13:59:16;6.97;;;5.23;;
5878;SDS011;2965;42.640;23.370;2022-07-23T14:01:43;13.57;;;4.87;;
5878;SDS011;2965;42.640;23.370;2022-07-23T14:04:09;4.70;;;4.30;;
5878;SDS011;2965;42.640;23.370;2022-07-23T14:06:34;5.53;;;4.10;;
5878;SDS011;2965;42.640;23.370;2022-07-23T14:08:59;5.83;;;3.97;;
5878;SDS011;2965;42.640;23.370;2022-07-23T14:11:25;4.97;;;4.40;;
5878;SDS011;2965;42.640;23.370;2022-07-23T14:13:50;7.80;;;4.90;;
5878;SDS011;2965;42.640;23.370;2022-07-23T14:16:16;4.97;;;4.47;;
5878;SDS011;2965;42.640;23.370;2022-07-23T14:18:41;14.87;;;5.13;;
5878;SDS011;2965;42.640;23.370;2022-07-23T14:21:07;9.40;;;5.37;;
5878;SDS011;2965;42.640;23.370;2022-07-23T14:23:32;6.00;;;5.20;;
5878;SDS011;2965;42.640;23.370;2022-07-23T14:25:58;8.93;;;4.47;;
5878;SDS011;2965;42.640;23.370;2022-07-23T14:28:24;4.73;;;4.53;;
5878;SDS011;2965;42.640;23.370;2022-07-23T14:30:49;5.20;;;4.70;;
5878;SDS011;2965;42.640;23.370;2022-07-23T14:33:15;6.93;;;4.97;;
5878;SDS011;2965;42.640;23.370;2022-07-23T14:35:41;5.10;;;4.70;;
5878;SDS011;2965;42.640;23.370;2022-07-23T14:38:07;13.80;;;4.93;;
5878;SDS011;2965;42.640;23.370;2022-07-23T14:40:32;4.70;;;4.37;;
5878;SDS011;2965;42.640;23.370;2022-07-23T14:42:58;5.43;;;4.90;;
5878;SDS011;2965;42.640;23.370;2022-07-23T14:45:23;6.10;;;4.80;;
5878;SDS011;2965;42.640;23.370;2022-07-23T14:47:49;6.90;;;4.90;;
5878;SDS011;2965;42.640;23.370;2022-07-23T14:50:14;7.63;;;4.97;;
5878;SDS011;2965;42.640;23.370;2022-07-23T14:52:40;6.60;;;5.10;;
5878;SDS011;2965;42.640;23.370;2022-07-23T14:55:05;4.53;;;4.43;;
5878;SDS011;2965;42.640;23.370;2022-07-23T14:57:31;10.43;;;4.83;;
5878;SDS011;2965;42.640;23.370;2022-07-23T14:59:57;9.87;;;4.80;;
5878;SDS011;2965;42.640;23.370;2022-07-23T15:02:22;5.17;;;4.33;;
5878;SDS011;2965;42.640;23.370;2022-07-23T15:04:47;9.53;;;5.30;;
5878;SDS011;2965;42.640;23.370;2022-07-23T15:07:13;7.63;;;4.17;;
5878;SDS011;2965;42.640;23.370;2022-07-23T15:09:38;4.63;;;4.23;;
5878;SDS011;2965;42.640;23.370;2022-07-23T15:12:04;11.43;;;5.33;;
5878;SDS011;2965;42.640;23.370;2022-07-23T15:14:29;7.67;;;5.27;;
5878;SDS011;2965;42.640;23.370;2022-07-23T15:16:55;12.93;;;6.30;;
5878;SDS011;2965;42.640;23.370;2022-07-23T15:19:20;9.03;;;5.23;;
5878;SDS011;2965;42.640;23.370;2022-07-23T15:21:46;5.33;;;4.93;;
5878;SDS011;2965;42.640;23.370;2022-07-23T15:24:11;9.37;;;5.43;;
5878;SDS011;2965;42.640;23.370;2022-07-23T15:26:37;6.33;;;5.90;;
5878;SDS011;2965;42.640;23.370;2022-07-23T15:29:02;20.23;;;5.93;;
5878;SDS011;2965;42.640;23.370;2022-07-23T15:31:31;6.87;;;4.90;;
5878;SDS011;2965;42.640;23.370;2022-07-23T15:33:56;9.67;;;5.57;;
5878;SDS011;2965;42.640;23.370;2022-07-23T15:36:22;8.03;;;5.17;;
5878;SDS011;2965;42.640;23.370;2022-07-23T15:38:48;8.80;;;6.33;;
5878;SDS011;2965;42.640;23.370;2022-07-23T15:41:13;5.27;;;4.90;;
5878;SDS011;2965;42.640;23.370;2022-07-23T15:43:39;5.17;;;4.87;;
5878;SDS011;2965;42.640;23.370;2022-07-23T15:46:05;5.40;;;5.20;;
5878;SDS011;2965;42.640;23.370;2022-07-23T15:48:31;8.33;;;5.40;;
5878;SDS011;2965;42.640;23.370;2022-07-23T15:50:59;6.07;;;5.63;;
5878;SDS011;2965;42.640;23.370;2022-07-23T15:53:26;11.67;;;6.27;;
5878;SDS011;2965;42.640;23.370;2022-07-23T15:55:51;5.87;;;5.37;;
5878;SDS011;2965;42.640;23.370;2022-07-23T15:58:17;6.20;;;5.70;;
5878;SDS011;2965;42.640;23.370;2022-07-23T16:00:42;5.90;;;5.40;;
5878;SDS011;2965;42.640;23.370;2022-07-23T16:03:07;6.63;;;6.07;;
5878;SDS011;2965;42.640;23.370;2022-07-23T16:05:33;7.23;;;4.60;;